Leonardo Rossi

Chefscout - Lecce
4 Apr 2027
Sonntag
Verarbeitung

Persönlichkeit

Anpassungsfähigkeit (17) Ehrgeiz (12) Kontroverse (13) Loyalität (1) Druck (7) Professionalität (10) Fairness (20) Temperament (2)

Profil

Trainerstil Demokratisch
Lizenz Nationale B
Entschlossenheit 10
Menschenführung 7
Motivation 12
Disziplin 4
Arbeitszufriedenheit
90%
Ermüdung
0%
Rolle Chefscout
Gehalt 41.1K p/W
Vertrag 14.03.2029

Leistung

Verhalten Gut
Trainingseffektivität
31%
Spielerentwicklung
30%
Verletzungsprävention
45%
Taktische Umsetzung
50%

Letzte Ereignisse

Nahm an einer Scouting-Besprechung teil jetzt
Empfahl ein Transferziel jetzt
Nahm an einer Scouting-Besprechung teil jetzt
Nahm an einer Scouting-Besprechung teil jetzt
Nahm an einer Scouting-Besprechung teil jetzt
Spieler begutachtet jetzt
Spieler begutachtet jetzt
Spieler begutachtet jetzt

Aktuell beobachtet

182
Spieler Verein Status Fähigkeit Vertrauen Beobachtet Zuletzt beobachtet Letzte Stimme
Stanislav Biblyk Chaika Aktiv 96 / 110 40% 4 02.04.2027 -
Ekain Orobengoa Real Sociedad Aktiv 101 / 95 40% 2 02.04.2027 -
Naoufal Bannis Vitesse Aktiv 104 / 100 40% 1 02.04.2027 -
Gonzalo Plata Dinamo Moscow Aktiv 139 / 132 40% 2 01.04.2027 -
Moses Cobnan Krasnodar Aktiv 120 / 131 40% 1 01.04.2027 -
Kamarai Swyer Northampton Town Aktiv 85 / 82 40% 1 01.04.2027 -
Mohamed Mallahi Pro Vercelli Aktiv 107 / 108 40% 3 31.03.2027 -
Luis Vázquez Birmingham Aktiv 125 / 124 40% 2 31.03.2027 -
Felipe Augusto Zenit Aktiv 130 / 138 40% 3 31.03.2027 -
Jonathan Rowe Bologna Aktiv 136 / 145 40% 6 30.03.2027 -
Maxence Caqueret Como Aktiv 136 / 143 40% 3 30.03.2027 -
Negueba Mirassol Aktiv 125 / 119 40% 2 30.03.2027 -
Daniil Konoplev Dinamo Bryansk Aktiv 78 / 82 40% 2 30.03.2027 -
Tenton Yenne Baltika Aktiv 108 / 91 40% 1 30.03.2027 -
Miro Dinamo Makhachkala Aktiv 110 / 98 40% 2 29.03.2027 -
Ivan Bendera Epicentr Aktiv 90 / 88 40% 1 29.03.2027 -
Juan Bisanz Huracán Aktiv 131 / 121 40% 4 28.03.2027 -
Jaminton Campaz Rosario Central Aktiv 125 / 133 40% 1 28.03.2027 -
Lucas Villalba Botafogo Aktiv 125 / 123 40% 1 28.03.2027 -
Filip Stojilković Pisa Aktiv 130 / 134 40% 2 27.03.2027 -
Emanuele Pecorino Catanzaro Aktiv 107 / 114 40% 4 27.03.2027 -
Dardan Shabanhaxhaj Rubin Aktiv 115 / 131 40% 4 27.03.2027 -
Paul Glatzel Swindon Town Aktiv 96 / 108 40% 3 25.03.2027 -
Lautaro De León Andorra Aktiv 112 / 113 40% 1 25.03.2027 -
Matija Frigan Parma Aktiv 120 / 133 40% 3 24.03.2027 -
Yegor Golenkov Rostov Aktiv 115 / 118 40% 2 24.03.2027 -
Piotr Samiec-Talar Slask Aktiv 115 / 91 40% 2 23.03.2027 -
Milan Vidakov Radnicki 1923 Aktiv 102 / 111 40% 3 22.03.2027 -
Josh Woods Accrington Stanley Aktiv 85 / 82 40% 1 22.03.2027 -
Leonardo Bellini Pianese Aktiv 90 / 85 40% 1 21.03.2027 -
Danil Glebov Dinamo Moscow Aktiv 127 / 129 40% 4 20.03.2027 -
John Yeboah Venezia Aktiv 126 / 119 40% 3 20.03.2027 -
Santiago Rodríguez Botafogo Aktiv 127 / 133 40% 2 20.03.2027 -
Ronaldo Rostov Aktiv 129 / 131 40% 1 20.03.2027 -
Mateo Fernández Angusht Aktiv 81 / 97 40% 1 20.03.2027 -
Jack Vale Alcione Milano Aktiv 89 / 92 40% 1 20.03.2027 -
Freddie Draper Lincoln City Aktiv 109 / 114 40% 3 19.03.2027 -
Kaio Jorge Cruzeiro Aktiv 140 / 130 40% 2 19.03.2027 -
Brayan Gil Baltika Aktiv 125 / 121 40% 4 18.03.2027 -
Abu Kamara Portsmouth Aktiv 118 / 125 40% 1 18.03.2027 -
Stiven Shpendi Empoli Aktiv 123 / 116 40% 1 18.03.2027 -
Rody Junior Effaghe Aris Aktiv 98 / 91 40% 4 15.03.2027 -
Louis Appéré Cambridge United Aktiv 96 / 87 40% 2 15.03.2027 -
Helinho Toluca Aktiv 133 / 124 40% 2 14.03.2027 -
Kane Drummond Oldham Athletic Aktiv 97 / 93 40% 2 14.03.2027 -
Aleksej Golijanin Sokol Aktiv 94 / 79 40% 1 14.03.2027 -
Alex Amorim Genoa Aktiv 134 / 142 40% 6 11.03.2027 -
Tyrese Shade Burton Albion Aktiv 97 / 108 40% 2 11.03.2027 -
Kevin Amaro Racing Genk Aktiv 125 / 137 40% 3 11.03.2027 -
Elia Petrelli Forli Aktiv 98 / 100 40% 2 11.03.2027 -
Pavel Meleshin Sochi Aktiv 119 / 126 40% 1 11.03.2027 -
Arsène Kouassi FC Lorient Aktiv 128 / 123 40% 1 11.03.2027 -
Mikhail Ignatov Sochi Aktiv 113 / 105 40% 3 09.03.2027 -
José Bica Leixões Aktiv 100 / 99 40% 2 09.03.2027 -
Alex Luna Instituto Aktiv 128 / 127 40% 4 08.03.2027 -
Sambou Soumano FC Lorient Aktiv 125 / 131 40% 4 08.03.2027 -
Jon Ander Olasagasti Levante Aktiv 127 / 125 40% 2 08.03.2027 -
Lechi Sadulaev Akhmat Grozny Aktiv 122 / 109 40% 2 06.03.2027 -
Maksim Samorodov Akhmat Grozny Aktiv 120 / 126 40% 1 06.03.2027 -
Johnson Amuzu Berekum Chelsea Aktiv 83 / 94 40% 1 06.03.2027 -
Job Ochieng Real Sociedad Aktiv 107 / 116 40% 1 06.03.2027 -
Rahim Ibrahim Slovan Bratislava Aktiv 127 / 127 40% 5 05.03.2027 -
Can Bozdogan Lazio Aktiv 124 / 114 40% 2 05.03.2027 -
Cauan Barros Vasco da Gama Aktiv 128 / 122 40% 1 05.03.2027 -
Obed Vargas Atlético Madrid Aktiv 120 / 130 40% 1 05.03.2027 -
Elias Lenz Huesca Aktiv 95 / 104 40% 1 05.03.2027 -
Josh Stephenson Brentford Aktiv 107 / 116 40% 1 05.03.2027 -
Nikolay Maximov Krylya Sovetov Aktiv 71 / 82 40% 1 28.02.2027 -
Vinicius Tobias Shakhtar Aktiv 135 / 147 40% 2 26.02.2027 -
Václav Sejk Sigma Olomouc Aktiv 110 / 132 40% 1 26.02.2027 -
Patryk Szwedzik Ruch Aktiv 95 / 114 40% 1 26.02.2027 -
Nilson Angulo Sunderland Aktiv 123 / 126 40% 2 25.02.2027 -
Thierry Rendall Correia Venezia Aktiv 141 / 133 40% 1 25.02.2027 -
Lewis McCann Fleetwood Town Aktiv 94 / 96 40% 2 22.02.2027 -
Simone Ianesi Pianese Aktiv 104 / 102 40% 2 22.02.2027 -
Eljon Toci Dolomiti Bellunesi Aktiv 97 / 84 40% 1 21.02.2027 -
Simone Rabbi Ravenna Bericht bereit 106 / 114 76% 3 18.02.2027 -
Danylo Honcharuk Probiy Aktiv 99 / 100 40% 3 18.02.2027 -
Juan Manuel Boselli Krasnodar Aktiv 125 / 129 40% 2 18.02.2027 -
Mandela Keita Parma Aktiv 131 / 135 40% 1 18.02.2027 -
Kota Tawaratsumida FC Tokyo Aktiv 134 / 142 40% 1 18.02.2027 -
Matvii Ponomarenko Dynamo Kyiv Aktiv 112 / 133 40% 2 16.02.2027 -
Fabio Abiuso Carrarese Aktiv 115 / 121 40% 2 14.02.2027 -
Mykola Haiduchyk Polissia Aktiv 106 / 112 40% 1 14.02.2027 -
Peter Itodo Metalist Aktiv 112 / 121 40% 1 11.02.2027 -
Rafik Belghali Hellas Verona Aktiv 122 / 114 40% 3 08.02.2027 -
Oscar Højlund Eintracht Frankfurt Aktiv 128 / 132 40% 1 08.02.2027 -
Brayan León Mamelodi Sundowns Aktiv 117 / 97 40% 1 06.02.2027 -
David Romero Parma Aktiv 131 / 121 40% 1 06.02.2027 -
Marcos Cuenca Zaragoza Aktiv 108 / 117 40% 1 05.02.2027 -
Dilan Ortíz Ufa Aktiv 105 / 115 40% 1 04.02.2027 -
Ardit Tahiri Kolos Aktiv 95 / 113 40% 1 02.02.2027 -
Emiliano Pattarello Arezzo Verloren 116 / 120 76% 1 25.01.2027 -
Pavel Meleshin Sochi Verloren 123 / 102 40% 1 17.01.2027 -
Emanuele Pecorino Catanzaro Verloren 107 / 101 40% 1 17.01.2027 -
Ramiro Ruiz Rodríguez Atlético Tucumán Aktiv 125 / 126 40% 1 16.01.2027 -
Lewis McCann Fleetwood Town Verloren 103 / 93 40% 1 06.01.2027 -
Danila Shilov Dinamo Stavropol Aktiv 100 / 99 40% 1 06.01.2027 -
Matteo Rover Reggiana Aktiv 113 / 118 40% 1 04.01.2027 -
Percy Erasmus SuperSport United Aktiv 137 / 131 40% 5 02.01.2027 -
Borna Knezović Casarano Aktiv 101 / 94 40% 1 02.01.2027 -
Denys Rezepov Nyva Aktiv 87 / 107 40% 1 02.01.2027 -
Dion Beljo Dinamo Zagreb Verloren 131 / 132 64% 1 01.01.2027 -
Mao Hosoya Corinthians Bericht bereit 134 / 135 67% 1 01.01.2027 -
Marko Farji Venezia Verloren 112 / 130 76% 1 01.01.2027 -
Edvin Austbø Viking Aktiv 128 / 135 40% 2 31.12.2026 -
Kauã Elias Shakhtar Aktiv 134 / 141 40% 3 29.12.2026 -
Jens Petter Hauge Bodo/Glimt Aktiv 145 / 136 40% 1 29.12.2026 -
Joaquín García Vélez Aktiv 128 / 115 40% 1 28.12.2026 -
Aarón Molinas Defensa y Justicia Aktiv 132 / 130 40% 1 28.12.2026 -
Luke Thomas Leicester City Aktiv 130 / 134 40% 2 27.12.2026 -
César Ibáñez Huracán Aktiv 127 / 127 40% 5 25.12.2026 -
Dinis Pinto Moreirense Aktiv 124 / 120 40% 1 25.12.2026 -
Adrián Sánchez Belgrano Aktiv 118 / 130 40% 2 24.12.2026 -
Alessandro Sersanti Modena Aktiv 126 / 118 40% 3 22.12.2026 -
Romano Floriani Mussolini Modena Aktiv 131 / 122 40% 2 21.12.2026 -
Franco Watson Lanús Aktiv 127 / 112 40% 2 21.12.2026 -
Cristian Shpendi Cesena Aktiv 124 / 144 40% 2 19.12.2026 -
Ali Soliman Masr El Makasa Aktiv 125 / 112 40% 3 19.12.2026 Beobachten
Daniel Karlsbakk Sarpsborg 08 Aktiv 128 / 137 40% 2 18.12.2026 -
Marcos López San Martín Aktiv 128 / 120 40% 3 16.12.2026 -
Santiago González Tigre Aktiv 127 / 128 40% 1 16.12.2026 -
Antoine Hainaut Venezia Aktiv 126 / 125 40% 1 16.12.2026 -
Haissem Hassan Bloemfontein Celtic Aktiv 132 / 138 40% 4 15.12.2026 -
Christian Krasnodar Aktiv 125 / 131 40% 2 14.12.2026 -
Hannes Wolf New York City Aktiv 130 / 126 40% 3 13.12.2026 -
Rubens Dinamo Moscow Aktiv 122 / 112 40% 1 13.12.2026 -
Facundo Torres Shakhtar Aktiv 135 / 118 40% 2 12.12.2026 -
Bitello Dinamo Moscow Aktiv 133 / 131 40% 2 09.12.2026 -
Damián Puebla Orenburg Aktiv 117 / 127 40% 1 08.12.2026 -
Felipe Peña Biafore Lanús Aktiv 127 / 119 40% 2 07.12.2026 -
Gianluca Busio Venezia Aktiv 138 / 141 40% 3 05.12.2026 -
Patrik Wålemark Lech Aktiv 120 / 116 40% 3 04.12.2026 -
André Luiz Sporting Kansas City Aktiv 128 / 140 40% 1 04.12.2026 -
Elias Achouri San Diego Football Club Aktiv 126 / 139 40% 1 03.12.2026 -
Kristian Arnstad AGF Aktiv 123 / 136 40% 3 29.11.2026 -
Nazar Voloshyn Dynamo Kyiv Aktiv 127 / 135 40% 3 29.11.2026 -
Alan Lescano Argentinos Juniors Aktiv 127 / 132 40% 2 28.11.2026 -
David Da Costa Portland Timbers Aktiv 120 / 112 40% 1 27.11.2026 -
Luís Guilherme Sporting CP Aktiv 129 / 130 40% 1 24.11.2026 -
Manolo Portanova Reggiana Aktiv 130 / 132 40% 1 24.11.2026 -
Alessandro Bianco Modena Aktiv 128 / 141 40% 1 24.11.2026 -
Gastón Benedetti Estudiantes Aktiv 123 / 131 40% 1 22.11.2026 -
Pelle Mattsson Norwich City Aktiv 120 / 133 40% 1 19.11.2026 -
Diego Luna Real Salt Lake Aktiv 131 / 145 40% 1 18.11.2026 -
Tobias Bech AGF Aktiv 124 / 124 40% 2 17.11.2026 -
Tiago Palacios Estudiantes Aktiv 133 / 129 40% 1 17.11.2026 -
Allahyar Sayyadmanesh Lech Aktiv 129 / 120 40% 1 14.11.2026 -
Maurits Kjærgaard Red Bull Salzburg Aktiv 132 / 134 40% 1 14.11.2026 Mehr Infos nötig
Emanuele Valeri Parma Aktiv 135 / 123 40% 2 12.11.2026 -
Andrea Ciofi Cesena Aktiv 117 / 119 40% 3 11.11.2026 -
Ki-Jana Hoever Sparta Prague Aktiv 135 / 117 40% 2 11.11.2026 -
Rodrigo Huescas FC Copenhagen Aktiv 140 / 124 40% 4 10.11.2026 -
Isaac Schmidt Young Boys Aktiv 128 / 120 40% 2 10.11.2026 -
Luis Palma Lech Aktiv 117 / 117 40% 1 01.11.2026 -
Joaquín Pereyra Minnesota United FC Aktiv 137 / 122 40% 2 31.10.2026 -
Metinho Basel Aktiv 124 / 125 40% 1 27.10.2026 -
Jack McGlynn Houston Dynamo Aktiv 123 / 139 40% 2 25.10.2026 -
Sergey Pinyaev Lokomotiv Moscow Aktiv 119 / 117 40% 1 23.10.2026 -
Facundo Mura Inter Miami CF Aktiv 131 / 135 40% 2 21.10.2026 -
Angelo Gattermayer Wolfsberger AC Aktiv 126 / 112 40% 1 21.10.2026 Mehr Infos nötig
Marcelo Allende Mamelodi Sundowns Aktiv 132 / 116 40% 1 20.10.2026 -
Juan Manuel Sanabria Real Salt Lake Aktiv 117 / 106 40% 1 20.10.2026 -
Ilias Sebaoui Sint-Truiden Aktiv 122 / 116 40% 2 18.10.2026 -
Emil Ceïde Rosenborg Aktiv 130 / 122 40% 1 18.10.2026 -
Håkon Evjen Bodo/Glimt Aktiv 136 / 131 40% 1 17.10.2026 -
Jhon Jhon Zenit Aktiv 138 / 121 40% 1 17.10.2026 -
Marlon Gomes Shakhtar Aktiv 127 / 124 40% 2 14.10.2026 -
Tristan Degreef Anderlecht Aktiv 125 / 134 40% 1 12.10.2026 -
Kimito Nono Gamba Osaka Aktiv 119 / 139 40% 1 12.10.2026 -
Fidel Ambríz Monterrey Aktiv 120 / 138 40% 1 10.10.2026 -
Brian Gutiérrez Guadalajara Aktiv 121 / 129 40% 2 09.10.2026 -
Bryan Ramírez FC Cincinnati Aktiv 126 / 111 40% 1 09.10.2026 -
Emerson Batalla Atletico Bucaramanga Aktiv 119 / 112 40% 1 08.10.2026 -
Oleh Ocheretko Shakhtar Aktiv 122 / 113 40% 1 08.10.2026 -
Xavier Biscayzacú Defensor Sporting Aktiv 124 / 123 40% 1 08.10.2026 -
Arvid Brorsson Monza Aktiv 112 / 102 76% 1 03.08.2026 Befürworten
Lucas Sanabria LA Galaxy Aktiv 130 / 124 40% 1 03.08.2026 -
Franco Ibarra Rosario Central Aktiv 122 / 138 40% 1 03.08.2026 -
Gabriel Strefezza Palermo Aktiv 122 / 114 40% 1 01.08.2026 -
Jordan Zemura Udinese Aktiv 139 / 143 40% 1 01.08.2026 -
Takehiro Tomiyasu Crystal Palace Aktiv 141 / 147 40% 1 01.08.2026 -